Time;durP1;ratioP1;P1;durP2;ratioP2;P2;SDS_P1;SDS_P2;PMS_P1;PMS_P2;Temp;Humidity;BMP_temperature;BMP_pressure;BME280_temperature;BME280_humidity;BME280_pressure;Samples;Min_cycle;Max_cycle;Signal;HPM_P1;HPM_P2
2021/11/07 00:00:35;;;;;;;34.00;16.70;;;1.70;99.90;;;;;;4960480;28;20939;-74
2021/11/07 00:03:07;;;;;;;29.83;17.40;;;1.60;99.90;;;;;;4971497;28;20902;-73
2021/11/07 00:05:47;;;;;;;33.47;15.40;;;1.70;99.90;;;;;;4971498;28;20441;-74
2021/11/07 00:11:20;;;;;;;31.10;15.80;;;1.80;99.90;;;;;;4971843;28;20521;-75
2021/11/07 00:13:48;;;;;;;26.23;15.00;;;1.80;99.90;;;;;;4970589;28;20985;-73
2021/11/07 00:16:20;;;;;;;32.40;15.20;;;1.80;99.90;;;;;;4971385;28;20981;-74
2021/11/07 00:18:56;;;;;;;28.97;16.07;;;1.90;99.90;;;;;;4971489;28;20546;-74
2021/11/07 00:21:25;;;;;;;30.30;14.87;;;1.90;99.90;;;;;;4971795;28;20942;-75
2021/11/07 00:26:25;;;;;;;37.57;17.83;;;1.90;99.90;;;;;;4974788;28;20444;-75
2021/11/07 00:28:55;;;;;;;34.00;15.73;;;1.80;99.90;;;;;;4973879;28;20207;-74
2021/11/07 00:46:26;;;;;;;23.40;13.23;;;1.50;99.90;;;;;;4973848;28;20462;-74
2021/11/07 00:51:33;;;;;;;27.80;13.37;;;1.40;99.90;;;;;;4972928;28;20517;-74
2021/11/07 00:59:07;;;;;;;25.30;12.03;;;1.30;99.90;;;;;;4973745;28;20462;-73
2021/11/07 05:30:50;;;;;;;12.90;7.90;;;0.20;99.90;;;;;;6085948;23;21316;-70
2021/11/07 05:33:17;;;;;;;11.10;7.70;;;0.20;99.90;;;;;;4949658;28;20491;-74
2021/11/07 05:35:43;;;;;;;14.57;8.57;;;0.20;99.90;;;;;;4954338;28;20388;-73
2021/11/07 05:38:09;;;;;;;9.70;7.10;;;0.20;99.90;;;;;;4955063;28;20395;-73
2021/11/07 05:40:34;;;;;;;8.93;7.30;;;0.30;99.90;;;;;;4955013;28;20768;-73
2021/11/07 05:43:00;;;;;;;10.60;7.20;;;0.20;99.90;;;;;;4954464;29;20216;-73
2021/11/07 05:45:25;;;;;;;11.60;7.27;;;0.20;99.90;;;;;;4947493;29;20249;-73
2021/11/07 05:47:51;;;;;;;12.60;8.17;;;0.20;99.90;;;;;;4951897;29;20195;-74
2021/11/07 05:50:19;;;;;;;14.87;8.47;;;0.20;99.90;;;;;;4954768;28;20169;-73
2021/11/07 05:52:45;;;;;;;17.20;8.90;;;0.20;99.90;;;;;;4954154;28;20940;-73
2021/11/07 05:55:11;;;;;;;14.13;7.93;;;0.20;99.90;;;;;;4954809;28;20392;-73
2021/11/07 05:57:38;;;;;;;18.33;8.03;;;0.20;99.90;;;;;;4953502;28;20284;-74
2021/11/07 06:00:06;;;;;;;13.10;8.77;;;0.20;99.90;;;;;;4952440;28;20424;-75
2021/11/07 06:02:31;;;;;;;11.00;8.17;;;0.20;99.90;;;;;;4954189;28;20462;-73
2021/11/07 06:04:57;;;;;;;13.37;8.40;;;0.20;99.90;;;;;;4954378;28;20524;-74
2021/11/07 06:07:22;;;;;;;9.90;8.03;;;0.20;99.90;;;;;;4954484;28;20176;-74
2021/11/07 06:09:48;;;;;;;11.57;8.20;;;0.30;99.90;;;;;;4954332;28;20219;-74
2021/11/07 06:12:14;;;;;;;6.73;5.97;;;0.30;99.90;;;;;;4954046;28;20188;-73
2021/11/07 06:14:40;;;;;;;15.10;8.20;;;0.30;99.90;;;;;;4954376;28;20476;-74
2021/11/07 06:17:06;;;;;;;9.93;7.90;;;0.40;99.90;;;;;;4954199;28;20390;-73
2021/11/07 06:19:31;;;;;;;9.63;7.23;;;0.50;99.90;;;;;;4954084;28;20218;-72
2021/11/07 06:21:57;;;;;;;13.53;8.23;;;0.50;99.90;;;;;;4951869;28;21055;-71
2021/11/07 06:24:27;;;;;;;13.00;8.73;;;0.60;99.90;;;;;;4954476;28;20179;-72
2021/11/07 06:26:56;;;;;;;11.37;7.90;;;0.70;99.90;;;;;;4954442;28;20227;-72
2021/11/07 06:29:22;;;;;;;16.17;8.20;;;0.80;99.90;;;;;;4954383;28;20413;-72
2021/11/07 06:31:51;;;;;;;11.23;8.40;;;0.90;99.90;;;;;;4954180;28;20484;-73
2021/11/07 06:34:17;;;;;;;15.30;8.20;;;0.90;99.90;;;;;;4954103;28;20842;-72
2021/11/07 06:36:43;;;;;;;12.70;7.93;;;1.10;99.90;;;;;;4954465;28;20454;-72
2021/11/07 06:39:09;;;;;;;15.47;9.03;;;1.30;99.90;;;;;;4954299;28;20412;-72
2021/11/07 06:41:35;;;;;;;25.87;15.90;;;1.50;99.90;;;;;;4954386;28;20416;-72
2021/11/07 06:44:01;;;;;;;16.90;10.53;;;1.60;99.90;;;;;;4953964;28;20587;-72
2021/11/07 06:46:27;;;;;;;14.20;8.40;;;1.70;99.90;;;;;;4954170;28;20643;-72
2021/11/07 06:48:53;;;;;;;16.07;8.17;;;1.90;99.90;;;;;;4953943;28;20413;-73
2021/11/07 06:51:19;;;;;;;16.63;9.07;;;2.00;99.90;;;;;;4954041;28;20425;-72
2021/11/07 06:53:44;;;;;;;16.43;8.63;;;2.10;99.90;;;;;;4954008;28;20173;-72
2021/11/07 06:56:10;;;;;;;14.30;9.33;;;2.20;99.90;;;;;;4954163;28;20452;-73
2021/11/07 06:58:36;;;;;;;16.53;9.83;;;2.30;99.90;;;;;;4952748;28;20458;-72
2021/11/07 07:01:02;;;;;;;13.37;8.50;;;2.50;99.90;;;;;;4953990;28;20823;-72
2021/11/07 07:03:27;;;;;;;11.17;7.70;;;2.70;99.90;;;;;;4953787;28;20257;-72
2021/11/07 07:05:53;;;;;;;13.13;7.93;;;2.80;99.90;;;;;;4953841;28;20203;-72
2021/11/07 07:08:23;;;;;;;17.17;10.30;;;3.00;99.90;;;;;;4953919;28;20251;-72
2021/11/07 07:11:02;;;;;;;15.80;10.03;;;3.20;99.90;;;;;;4953837;28;20634;-72
2021/11/07 07:13:33;;;;;;;13.80;9.93;;;3.40;99.90;;;;;;4952536;28;20451;-71
2021/11/07 07:21:39;;;;;;;11.77;8.07;;;5.20;99.90;;;;;;4953949;29;20531;-78
2021/11/07 07:27:13;;;;;;;13.67;7.87;;;6.20;99.90;;;;;;4953336;28;20458;-72
2021/11/07 07:34:43;;;;;;;9.80;7.97;;;7.40;99.90;;;;;;4958590;28;20459;-72
2021/11/07 07:37:09;;;;;;;9.80;7.20;;;7.70;99.90;;;;;;4957219;28;20304;-72
2021/11/07 07:39:34;;;;;;;9.17;7.03;;;7.80;99.90;;;;;;4955623;28;21021;-69
2021/11/07 07:42:00;;;;;;;8.57;6.83;;;7.70;99.90;;;;;;4956148;28;20585;-70
2021/11/07 07:44:26;;;;;;;10.33;8.10;;;7.70;99.90;;;;;;4956362;28;20228;-71
2021/11/07 07:46:52;;;;;;;13.33;8.47;;;8.00;99.90;;;;;;4956469;28;20316;-71
2021/11/07 07:49:18;;;;;;;10.60;8.40;;;7.90;99.90;;;;;;4956594;28;20206;-70
2021/11/07 07:51:46;;;;;;;10.23;8.63;;;8.20;99.90;;;;;;4954450;28;20524;-70
2021/11/07 07:54:12;;;;;;;11.77;9.73;;;8.30;99.90;;;;;;4956754;28;20456;-70
2021/11/07 07:56:38;;;;;;;12.80;9.00;;;8.20;99.90;;;;;;4955844;28;20844;-73
2021/11/07 07:59:05;;;;;;;14.27;10.00;;;8.10;99.90;;;;;;4963318;28;20217;-72
2021/11/07 08:01:32;;;;;;;11.07;8.10;;;7.90;99.90;;;;;;4953038;28;20552;-73
2021/11/07 08:03:57;;;;;;;10.80;8.67;;;7.60;99.90;;;;;;4956231;28;20445;-73
2021/11/07 08:06:23;;;;;;;12.57;8.70;;;7.30;99.90;;;;;;4956096;28;20412;-72
2021/11/07 08:08:49;;;;;;;10.83;8.07;;;7.00;99.90;;;;;;4967941;28;20225;-72
2021/11/07 08:11:15;;;;;;;11.00;8.83;;;7.00;99.90;;;;;;4956267;28;20201;-72
2021/11/07 08:13:41;;;;;;;10.70;8.00;;;6.80;99.90;;;;;;4955750;28;20480;-72
2021/11/07 08:16:08;;;;;;;12.60;7.90;;;6.50;99.90;;;;;;4956610;28;20201;-71
2021/11/07 08:18:34;;;;;;;10.90;7.40;;;6.40;99.90;;;;;;4963203;28;20563;-72
2021/11/07 08:21:00;;;;;;;12.53;8.23;;;6.30;99.90;;;;;;4974801;28;20828;-72
2021/11/07 08:23:27;;;;;;;11.50;8.57;;;6.30;99.90;;;;;;4956112;28;20470;-72
2021/11/07 08:25:52;;;;;;;10.83;7.57;;;6.20;99.90;;;;;;4956987;28;20881;-72
2021/11/07 08:28:20;;;;;;;9.83;7.60;;;6.20;99.90;;;;;;4955091;28;20449;-72
2021/11/07 08:30:51;;;;;;;10.50;8.63;;;6.00;99.90;;;;;;4956397;28;20195;-72
2021/11/07 08:33:16;;;;;;;11.23;8.10;;;6.00;99.90;;;;;;4956322;28;20402;-72
2021/11/07 08:35:44;;;;;;;11.37;8.07;;;6.00;99.90;;;;;;4956537;28;20481;-72
2021/11/07 08:38:15;;;;;;;13.37;7.97;;;6.00;99.90;;;;;;4956497;28;20180;-72
2021/11/07 08:40:50;;;;;;;10.70;8.30;;;6.00;99.90;;;;;;4955689;28;20416;-72
2021/11/07 09:02:32;;;;;;;8.30;6.00;;;6.30;99.90;;;;;;4955277;28;20568;-70
2021/11/07 09:05:02;;;;;;;13.43;6.40;;;6.50;99.90;;;;;;4949444;28;20427;-70
2021/11/07 09:10:17;;;;;;;7.90;6.10;;;7.00;99.90;;;;;;4937194;29;20425;-73
2021/11/07 09:12:42;;;;;;;6.03;5.20;;;7.50;99.90;;;;;;4936832;29;20444;-71
2021/11/07 09:15:08;;;;;;;6.07;4.87;;;8.10;99.90;;;;;;4936601;29;20427;-72
2021/11/07 09:17:34;;;;;;;6.90;5.80;;;8.50;99.90;;;;;;4936563;29;20177;-72
2021/11/07 09:20:05;;;;;;;6.53;4.60;;;9.30;99.90;;;;;;4936238;29;20649;-72
2021/11/07 09:25:01;;;;;;;3.53;2.67;;;10.00;99.90;;;;;;4936316;29;20452;-72
2021/11/07 09:27:33;;;;;;;4.33;2.67;;;10.20;99.90;;;;;;4936131;29;20422;-71
2021/11/07 09:32:33;;;;;;;2.50;2.30;;;10.00;99.90;;;;;;4935777;29;20546;-71
2021/11/07 09:35:26;;;;;;;2.80;2.20;;;9.90;99.90;;;;;;4935954;29;20189;-71
2021/11/07 09:37:52;;;;;;;2.10;1.97;;;9.80;99.90;;;;;;4935933;29;20405;-71
2021/11/07 09:40:20;;;;;;;2.60;2.40;;;9.70;99.90;;;;;;4945728;28;20402;-71
2021/11/07 09:48:13;;;;;;;1.93;1.83;;;9.60;99.90;;;;;;4943285;29;20427;-71
2021/11/07 09:50:41;;;;;;;2.13;2.00;;;9.70;99.90;;;;;;4935693;29;20804;-71
2021/11/07 09:53:06;;;;;;;2.60;1.70;;;9.80;99.90;;;;;;4934030;29;20442;-70
2021/11/07 09:55:33;;;;;;;1.60;1.50;;;9.80;99.90;;;;;;4934814;29;20866;-72
2021/11/07 09:58:00;;;;;;;2.70;1.83;;;9.80;99.90;;;;;;4935334;28;20656;-72
2021/11/07 10:00:36;;;;;;;1.90;1.80;;;10.00;99.90;;;;;;4935783;29;20422;-72
2021/11/07 10:03:02;;;;;;;2.93;1.77;;;10.00;99.90;;;;;;4935096;29;20515;-72
2021/11/07 10:05:27;;;;;;;2.10;1.90;;;10.10;99.90;;;;;;4935662;29;20553;-72
2021/11/07 10:08:05;;;;;;;2.30;1.80;;;9.90;99.90;;;;;;4935140;29;20264;-72
2021/11/07 10:10:36;;;;;;;1.90;1.80;;;9.90;99.90;;;;;;4946157;29;20354;-71
2021/11/07 10:13:12;;;;;;;2.10;2.00;;;9.80;99.90;;;;;;4952875;28;20772;-71
2021/11/07 10:15:47;;;;;;;2.13;2.00;;;9.80;99.90;;;;;;4954476;28;20453;-72
2021/11/07 10:18:32;;;;;;;3.00;2.60;;;9.80;99.90;;;;;;4954308;28;20785;-71
2021/11/07 10:21:00;;;;;;;2.83;2.30;;;9.90;99.90;;;;;;4954624;28;20464;-71
2021/11/07 10:23:32;;;;;;;4.00;2.30;;;10.00;99.90;;;;;;4953900;28;20471;-72
2021/11/07 10:26:25;;;;;;;7.23;2.37;;;10.10;99.90;;;;;;4954358;28;20832;-72
2021/11/07 10:28:58;;;;;;;1.80;1.70;;;10.40;99.90;;;;;;4954346;28;20438;-71
2021/11/07 10:39:18;;;;;;;2.20;1.70;;;11.90;99.90;;;;;;4954086;28;20425;-72
2021/11/07 10:47:16;;;;;;;1.83;1.73;;;11.70;99.90;;;;;;4953778;28;20932;-72
2021/11/07 10:52:29;;;;;;;4.37;1.80;;;11.30;99.90;;;;;;4947961;29;20455;-71
2021/11/07 10:54:55;;;;;;;2.40;2.00;;;11.40;99.90;;;;;;4934598;29;20428;-72
2021/11/07 10:57:27;;;;;;;1.47;1.37;;;11.30;99.90;;;;;;4934598;29;20188;-71
2021/11/07 11:00:19;;;;;;;1.93;1.53;;;11.10;99.90;;;;;;4934436;29;21007;-71
2021/11/07 11:02:53;;;;;;;1.73;1.53;;;11.10;99.90;;;;;;4933642;29;20535;-72
2021/11/07 11:05:25;;;;;;;1.20;0.93;;;11.30;99.90;;;;;;4934197;29;20424;-70
2021/11/07 11:08:01;;;;;;;1.10;1.00;;;11.30;99.90;;;;;;4934613;29;20484;-72
2021/11/07 11:10:36;;;;;;;2.77;0.83;;;11.40;99.90;;;;;;4934943;29;20413;-72
2021/11/07 11:13:16;;;;;;;0.77;0.77;;;11.40;99.90;;;;;;4934425;29;20519;-71
2021/11/07 11:16:00;;;;;;;0.73;0.70;;;11.50;99.90;;;;;;4934754;29;20779;-71
2021/11/07 11:21:12;;;;;;;1.50;0.80;;;11.70;99.90;;;;;;4934823;29;20429;-72
2021/11/07 11:26:38;;;;;;;2.50;0.80;;;11.80;99.90;;;;;;4932991;29;20424;-71
2021/11/07 11:34:32;;;;;;;0.90;0.70;;;11.90;99.90;;;;;;4934320;29;20456;-72
2021/11/07 11:37:09;;;;;;;0.90;0.90;;;11.90;99.90;;;;;;4934740;29;20778;-71
2021/11/07 11:39:42;;;;;;;0.90;0.70;;;12.00;99.90;;;;;;4934530;29;20418;-71
2021/11/07 11:42:14;;;;;;;1.13;0.63;;;11.90;99.90;;;;;;4934162;29;20531;-71
2021/11/07 11:44:44;;;;;;;0.60;0.60;;;12.00;99.90;;;;;;4934457;29;20487;-71
2021/11/07 11:47:37;;;;;;;1.27;0.70;;;11.90;99.90;;;;;;4933318;29;20480;-72
2021/11/07 11:50:23;;;;;;;1.77;0.83;;;11.90;99.90;;;;;;4934613;29;20397;-72
2021/11/07 11:53:06;;;;;;;0.80;0.63;;;12.20;99.90;;;;;;4934054;29;20443;-71
2021/11/07 12:00:54;;;;;;;0.60;0.57;;;13.00;99.90;;;;;;4934302;29;20177;-71
2021/11/07 12:06:34;;;;;;;1.10;0.60;;;13.20;99.90;;;;;;4934746;29;20517;-72
2021/11/07 12:12:12;;;;;;;0.50;0.50;;;13.60;99.90;;;;;;4934267;29;20460;-71
2021/11/07 12:17:47;;;;;;;2.20;0.70;;;13.90;99.90;;;;;;4926477;29;20479;-70
2021/11/07 12:20:27;;;;;;;0.90;0.90;;;13.80;99.90;;;;;;4937682;29;20413;-71
2021/11/07 12:23:14;;;;;;;0.83;0.83;;;13.90;99.90;;;;;;4936869;29;20460;-71
2021/11/07 12:25:40;;;;;;;1.20;0.83;;;14.00;99.90;;;;;;4937216;29;20413;-71
2021/11/07 12:28:06;;;;;;;0.60;0.60;;;13.90;99.90;;;;;;4937305;29;20437;-71
2021/11/07 12:30:33;;;;;;;1.63;0.70;;;13.80;99.90;;;;;;4937104;29;20413;-71
2021/11/07 12:33:07;;;;;;;0.83;0.57;;;13.70;99.90;;;;;;4936853;29;20240;-70
2021/11/07 12:36:05;;;;;;;1.03;0.60;;;13.70;99.90;;;;;;4936919;29;20502;-71
2021/11/07 12:41:23;;;;;;;1.00;0.60;;;13.60;99.90;;;;;;4937005;29;20480;-71
2021/11/07 12:44:03;;;;;;;1.03;0.60;;;13.40;99.90;;;;;;4936844;29;20457;-70
2021/11/07 12:46:48;;;;;;;2.50;0.60;;;13.10;99.90;;;;;;4937031;29;20821;-71
2021/11/07 12:49:13;;;;;;;2.03;0.73;;;12.90;99.90;;;;;;4936999;29;20421;-71
2021/11/07 12:51:51;;;;;;;0.60;0.60;;;12.80;99.90;;;;;;4936478;29;20479;-71
2021/11/07 12:54:22;;;;;;;0.47;0.47;;;12.70;99.90;;;;;;4936786;29;20169;-71
2021/11/07 12:57:02;;;;;;;1.47;0.70;;;12.70;99.90;;;;;;4936534;29;20432;-71
2021/11/07 12:59:27;;;;;;;0.90;0.80;;;12.60;99.90;;;;;;4936717;29;20412;-71
2021/11/07 13:02:17;;;;;;;2.00;0.60;;;12.40;99.90;;;;;;4936423;29;20803;-71
2021/11/07 13:04:53;;;;;;;1.67;0.80;;;12.20;99.90;;;;;;4936802;29;20535;-71
2021/11/07 13:07:23;;;;;;;0.70;0.70;;;12.10;99.90;;;;;;4936697;29;20421;-71
2021/11/07 13:09:56;;;;;;;0.87;0.60;;;11.90;99.90;;;;;;4936493;29;20405;-70
2021/11/07 13:12:30;;;;;;;1.33;0.73;;;11.80;99.90;;;;;;4936238;29;20492;-71
2021/11/07 13:15:30;;;;;;;0.73;0.73;;;11.70;99.90;;;;;;4935802;29;20487;-71
2021/11/07 13:21:01;;;;;;;3.37;0.70;;;11.30;99.90;;;;;;4936414;29;20507;-71
2021/11/07 13:26:21;;;;;;;1.00;1.00;;;10.80;99.90;;;;;;4936447;29;20419;-71
2021/11/07 13:28:59;;;;;;;0.70;0.70;;;10.60;99.90;;;;;;4935875;29;20560;-71
2021/11/07 13:31:27;;;;;;;1.63;1.53;;;10.60;99.90;;;;;;4936046;29;20470;-72
2021/11/07 13:34:13;;;;;;;3.57;1.00;;;10.50;99.90;;;;;;4935811;29;20922;-72
2021/11/07 13:36:41;;;;;;;0.90;0.90;;;10.50;99.90;;;;;;4936056;29;20410;-71
2021/11/07 13:39:08;;;;;;;2.47;1.70;;;10.50;99.90;;;;;;4936079;29;20621;-71
2021/11/07 13:41:35;;;;;;;4.17;2.30;;;10.40;99.90;;;;;;4935704;29;20413;-71
2021/11/07 13:44:11;;;;;;;1.93;1.83;;;10.50;99.90;;;;;;4935625;29;20502;-70
2021/11/07 13:46:50;;;;;;;1.40;0.97;;;10.50;99.90;;;;;;4934529;29;20435;-71
2021/11/07 13:49:15;;;;;;;2.00;1.30;;;10.50;99.90;;;;;;4934767;29;20434;-71
2021/11/07 13:52:01;;;;;;;3.37;2.10;;;10.50;99.90;;;;;;4935549;29;20434;-71
2021/11/07 13:54:28;;;;;;;0.70;0.70;;;10.50;99.90;;;;;;4935729;29;20172;-72
2021/11/07 13:56:54;;;;;;;0.60;0.60;;;10.50;99.90;;;;;;4935631;29;20416;-71
2021/11/07 13:59:39;;;;;;;0.80;0.70;;;10.40;99.90;;;;;;4935647;29;20407;-70
2021/11/07 14:02:16;;;;;;;1.47;0.60;;;10.40;99.90;;;;;;4935394;29;20780;-69
2021/11/07 14:04:56;;;;;;;1.50;0.70;;;10.40;99.90;;;;;;4935487;29;20926;-71
2021/11/07 14:07:26;;;;;;;2.03;0.80;;;10.40;99.90;;;;;;4935532;29;20412;-71
2021/11/07 14:09:55;;;;;;;0.77;0.77;;;10.30;99.90;;;;;;4935430;29;20391;-72
2021/11/07 14:12:53;;;;;;;1.00;0.70;;;10.20;99.90;;;;;;4935265;29;20436;-71
2021/11/07 14:15:27;;;;;;;1.43;0.70;;;10.20;99.90;;;;;;4935578;29;20422;-71
2021/11/07 14:17:57;;;;;;;2.30;0.80;;;10.10;99.90;;;;;;4935455;29;20424;-70
2021/11/07 14:20:50;;;;;;;1.10;1.00;;;10.00;99.90;;;;;;4934467;29;20500;-71
2021/11/07 14:26:17;;;;;;;1.20;1.07;;;9.90;99.90;;;;;;4935453;29;20739;-70
2021/11/07 14:31:37;;;;;;;1.80;1.17;;;9.90;99.90;;;;;;4935037;29;20964;-71
2021/11/07 14:34:07;;;;;;;1.70;1.53;;;9.80;99.90;;;;;;4934637;29;20419;-71
2021/11/07 14:39:11;;;;;;;1.20;1.10;;;9.90;99.90;;;;;;4935039;29;20415;-71
2021/11/07 14:41:45;;;;;;;1.30;1.10;;;9.90;99.90;;;;;;4934385;29;20442;-71
2021/11/07 14:44:27;;;;;;;3.10;1.10;;;10.00;99.90;;;;;;4934879;29;20429;-71
2021/11/07 14:47:31;;;;;;;1.17;1.07;;;9.90;99.90;;;;;;4935086;29;20408;-71
2021/11/07 14:50:21;;;;;;;4.03;0.90;;;10.00;99.90;;;;;;4934962;29;20405;-71
2021/11/07 14:55:29;;;;;;;0.93;0.80;;;10.00;99.90;;;;;;4934916;29;20472;-71
2021/11/07 15:00:59;;;;;;;0.70;0.70;;;10.00;99.90;;;;;;4926112;29;20429;-71
2021/11/07 15:03:31;;;;;;;0.60;0.60;;;9.90;99.90;;;;;;4934981;29;20835;-71
2021/11/07 15:06:35;;;;;;;0.70;0.70;;;9.90;99.90;;;;;;4935391;29;20423;-71
2021/11/07 15:09:10;;;;;;;0.80;0.80;;;9.90;99.90;;;;;;4934410;29;20502;-71
2021/11/07 15:12:14;;;;;;;2.03;1.00;;;9.90;99.90;;;;;;4934758;29;20450;-72
2021/11/07 15:14:35;;;;;;;1.00;1.00;;;9.90;99.90;;;;;;4935270;29;20441;-73
2021/11/07 15:17:26;;;;;;;1.83;1.33;;;9.90;99.90;;;;;;4934958;29;20416;-72
2021/11/07 15:19:57;;;;;;;1.00;1.00;;;9.90;99.90;;;;;;4933762;28;20928;-71
2021/11/07 15:22:46;;;;;;;0.80;0.70;;;9.90;99.90;;;;;;4934748;29;20484;-71
2021/11/07 15:25:12;;;;;;;1.00;1.00;;;9.80;99.90;;;;;;4934888;29;20411;-71
2021/11/07 15:27:37;;;;;;;1.90;0.93;;;9.80;99.90;;;;;;4934914;29;20955;-72
2021/11/07 15:30:13;;;;;;;0.67;0.67;;;9.80;99.90;;;;;;4934885;29;20410;-72
2021/11/07 15:32:41;;;;;;;0.93;0.93;;;9.80;99.90;;;;;;4944526;29;20228;-72
2021/11/07 15:35:30;;;;;;;1.37;1.37;;;9.80;99.90;;;;;;4937103;29;20415;-72
2021/11/07 15:38:08;;;;;;;2.30;1.63;;;9.80;99.90;;;;;;4939458;29;20948;-71
2021/11/07 15:40:33;;;;;;;1.10;0.70;;;9.80;99.90;;;;;;4934144;29;20971;-72
2021/11/07 15:42:59;;;;;;;1.77;1.10;;;9.80;99.90;;;;;;4931532;29;20505;-72
2021/11/07 15:45:27;;;;;;;3.27;2.40;;;9.80;99.90;;;;;;4934324;29;20175;-72
2021/11/07 15:47:58;;;;;;;2.30;2.10;;;9.80;99.90;;;;;;4933961;29;20179;-71
2021/11/07 16:04:03;;;;;;;1.67;1.50;;;9.60;99.90;;;;;;4949918;28;20514;-72
2021/11/07 16:13:42;;;;;;;1.33;1.23;;;9.30;99.90;;;;;;4956304;28;20218;-74
2021/11/07 16:18:40;;;;;;;4.30;2.10;;;9.20;99.90;;;;;;4956524;28;20426;-74
2021/11/07 16:21:09;;;;;;;3.03;1.87;;;9.10;99.90;;;;;;4955724;28;20535;-74
2021/11/07 16:23:34;;;;;;;4.43;1.70;;;9.00;99.90;;;;;;4955883;28;20466;-74
2021/11/07 16:26:05;;;;;;;2.47;2.27;;;8.90;99.90;;;;;;4955737;28;20444;-73
2021/11/07 16:28:31;;;;;;;1.90;1.80;;;8.90;99.90;;;;;;4954821;28;20175;-74
2021/11/07 16:31:04;;;;;;;4.53;2.93;;;8.80;99.90;;;;;;4955888;28;21068;-73
2021/11/07 16:33:32;;;;;;;3.77;3.30;;;8.70;99.90;;;;;;4955714;28;20219;-73
2021/11/07 16:36:12;;;;;;;3.10;2.80;;;8.60;99.90;;;;;;4955642;28;20434;-73
2021/11/07 16:41:19;;;;;;;2.03;1.83;;;8.60;99.90;;;;;;4955470;28;20478;-74
2021/11/07 16:43:46;;;;;;;2.40;2.20;;;8.60;99.90;;;;;;4954687;28;20468;-74
2021/11/07 16:46:13;;;;;;;2.77;1.90;;;8.50;99.90;;;;;;4955238;28;20489;-74
2021/11/07 16:48:43;;;;;;;1.97;1.70;;;8.50;99.90;;;;;;4953030;28;20423;-74
2021/11/07 16:51:18;;;;;;;3.13;1.90;;;8.50;99.90;;;;;;4966190;28;20433;-73
2021/11/07 16:53:48;;;;;;;2.13;2.03;;;8.40;99.90;;;;;;4960960;28;20778;-74
2021/11/07 16:56:14;;;;;;;5.17;2.43;;;8.40;99.90;;;;;;4950808;28;20768;-74
2021/11/07 16:58:57;;;;;;;6.40;2.70;;;8.40;99.90;;;;;;4953321;28;20399;-74
2021/11/07 17:02:13;;;;;;;3.20;2.67;;;8.40;99.90;;;;;;4954408;28;20540;-74
2021/11/07 17:04:16;;;;;;;3.80;2.70;;;8.40;99.90;;;;;;4958433;28;20513;-74
2021/11/07 17:06:48;;;;;;;2.77;2.63;;;8.30;99.90;;;;;;4953836;28;20437;-73
2021/11/07 17:09:22;;;;;;;3.60;3.30;;;8.30;99.90;;;;;;4953773;28;20491;-73
2021/11/07 17:11:52;;;;;;;4.70;4.10;;;8.30;99.90;;;;;;4953868;28;20946;-74
2021/11/07 17:14:18;;;;;;;5.30;4.80;;;8.30;99.90;;;;;;4952282;28;20434;-74
2021/11/07 17:16:53;;;;;;;4.70;4.30;;;8.30;99.90;;;;;;4954761;28;20424;-73
2021/11/07 17:19:24;;;;;;;4.57;3.70;;;8.30;99.90;;;;;;4961015;28;20787;-70
2021/11/07 17:26:53;;;;;;;7.63;4.13;;;8.30;99.90;;;;;;4969391;28;20437;-74
2021/11/07 17:29:21;;;;;;;5.83;2.70;;;8.30;99.90;;;;;;4974588;28;20417;-74
2021/11/07 17:32:00;;;;;;;3.43;3.20;;;8.30;99.90;;;;;;4974186;28;20472;-74
2021/11/07 17:34:35;;;;;;;3.13;2.93;;;8.30;99.90;;;;;;4974419;28;20440;-73
2021/11/07 17:37:05;;;;;;;4.00;3.70;;;8.30;99.90;;;;;;4973866;28;20391;-74
2021/11/07 17:44:58;;;;;;;4.23;3.93;;;8.30;99.90;;;;;;4974084;28;20478;-72
2021/11/07 17:55:27;;;;;;;3.67;3.30;;;8.30;99.90;;;;;;4943344;28;20509;-73
2021/11/07 17:57:55;;;;;;;3.50;3.20;;;8.30;99.90;;;;;;4953847;28;20543;-74
2021/11/07 18:00:26;;;;;;;9.90;5.27;;;8.30;99.90;;;;;;4952614;28;20937;-73
2021/11/07 18:03:00;;;;;;;3.80;3.50;;;8.30;99.90;;;;;;4953617;28;20501;-73
2021/11/07 18:05:30;;;;;;;4.33;3.83;;;8.30;99.90;;;;;;4954054;28;20448;-74
2021/11/07 18:08:02;;;;;;;8.73;7.93;;;8.30;99.90;;;;;;4954111;28;20462;-74
2021/11/07 18:10:28;;;;;;;6.53;6.03;;;8.30;99.90;;;;;;4949257;28;20464;-74
2021/11/07 18:12:55;;;;;;;7.17;4.97;;;8.30;99.90;;;;;;4946544;28;20937;-74
2021/11/07 18:15:24;;;;;;;2.83;2.63;;;8.30;99.90;;;;;;4953012;28;20220;-73
2021/11/07 18:17:49;;;;;;;2.50;2.30;;;8.30;99.90;;;;;;4953671;28;20461;-74
2021/11/07 18:20:17;;;;;;;4.20;3.90;;;8.30;99.90;;;;;;4954027;28;20461;-74
2021/11/07 18:22:47;;;;;;;4.03;2.87;;;8.20;99.90;;;;;;4952784;28;20304;-74
2021/11/07 18:25:18;;;;;;;2.63;2.43;;;8.20;99.90;;;;;;4953928;28;20458;-74
2021/11/07 18:27:44;;;;;;;2.40;2.00;;;8.20;99.90;;;;;;4953562;28;20497;-75
2021/11/07 18:30:16;;;;;;;2.13;2.03;;;8.20;99.90;;;;;;4953620;28;20854;-75
2021/11/07 18:32:43;;;;;;;2.67;2.57;;;8.20;99.90;;;;;;4952560;28;20462;-74
2021/11/07 18:35:11;;;;;;;4.07;3.87;;;8.10;99.90;;;;;;4952562;28;20483;-75
2021/11/07 18:37:38;;;;;;;2.00;1.90;;;8.10;99.90;;;;;;4953078;28;20547;-75
2021/11/07 18:40:07;;;;;;;2.87;2.67;;;8.10;99.90;;;;;;4953445;28;20815;-74
2021/11/07 18:42:32;;;;;;;1.80;1.70;;;8.10;99.90;;;;;;4952523;28;20469;-74
2021/11/07 18:44:58;;;;;;;2.20;2.00;;;8.10;99.90;;;;;;4952733;28;20473;-74
2021/11/07 18:47:26;;;;;;;2.20;2.10;;;8.10;99.90;;;;;;4952944;28;20750;-74
2021/11/07 18:49:51;;;;;;;5.03;4.60;;;8.00;99.90;;;;;;4952936;28;20221;-74
2021/11/07 18:52:17;;;;;;;1.90;1.80;;;7.90;99.90;;;;;;4953233;28;20545;-74
2021/11/07 18:54:44;;;;;;;3.43;3.10;;;7.90;99.90;;;;;;4952499;28;20695;-74
2021/11/07 18:57:15;;;;;;;2.10;2.00;;;7.90;99.90;;;;;;4963920;28;20426;-74
2021/11/07 18:59:41;;;;;;;5.23;2.83;;;7.80;99.90;;;;;;4952547;28;20949;-72
2021/11/07 19:02:07;;;;;;;3.53;2.90;;;7.80;99.90;;;;;;4952905;28;20986;-72
2021/11/07 19:04:32;;;;;;;3.30;3.00;;;7.80;99.90;;;;;;4952379;28;20568;-73
2021/11/07 19:06:58;;;;;;;2.33;2.13;;;7.70;99.90;;;;;;4953100;28;20222;-72
2021/11/07 19:09:24;;;;;;;2.33;2.13;;;7.70;99.90;;;;;;4952771;28;20233;-72
2021/11/07 19:11:50;;;;;;;1.70;1.60;;;7.70;99.90;;;;;;4952921;28;20460;-72
2021/11/07 19:14:16;;;;;;;1.90;1.80;;;7.70;99.90;;;;;;4952726;28;20266;-73
2021/11/07 19:16:42;;;;;;;4.40;2.00;;;7.80;99.90;;;;;;4952479;28;20217;-72
2021/11/07 19:19:08;;;;;;;2.20;2.00;;;7.80;99.90;;;;;;4952793;28;20464;-73
2021/11/07 19:21:33;;;;;;;2.63;2.43;;;7.80;99.90;;;;;;4952810;28;20482;-73
2021/11/07 19:24:00;;;;;;;2.67;2.47;;;7.80;99.90;;;;;;4952165;28;20316;-73
2021/11/07 19:26:26;;;;;;;2.80;2.60;;;7.80;99.90;;;;;;4953985;28;20305;-72
2021/11/07 19:28:52;;;;;;;3.77;2.83;;;7.90;99.90;;;;;;4958896;28;20589;-73
2021/11/07 19:31:20;;;;;;;6.40;3.30;;;7.90;99.90;;;;;;4959177;28;20471;-73
2021/11/07 19:33:48;;;;;;;3.60;2.93;;;7.90;99.90;;;;;;4958691;28;20492;-72
2021/11/07 19:36:14;;;;;;;2.50;2.30;;;7.90;99.90;;;;;;4959451;28;20975;-73
2021/11/07 19:38:40;;;;;;;3.50;2.70;;;7.90;99.90;;;;;;4958693;28;20986;-72
2021/11/07 19:41:05;;;;;;;3.73;3.43;;;7.90;99.90;;;;;;4959015;28;20485;-72
2021/11/07 19:43:31;;;;;;;3.30;2.90;;;7.90;99.90;;;;;;4958726;28;20573;-72
2021/11/07 19:46:04;;;;;;;3.40;3.10;;;7.90;99.90;;;;;;4959044;28;20215;-72
2021/11/07 19:48:34;;;;;;;3.53;3.20;;;7.90;99.90;;;;;;4958660;28;20302;-73
2021/11/07 19:50:59;;;;;;;3.07;2.77;;;7.90;99.90;;;;;;4959013;28;20481;-72
2021/11/07 19:53:26;;;;;;;3.57;3.27;;;7.80;99.90;;;;;;4958787;28;20458;-73
2021/11/07 19:55:52;;;;;;;2.90;2.70;;;7.80;99.90;;;;;;4959120;28;20251;-73
2021/11/07 19:58:18;;;;;;;3.70;3.40;;;7.80;99.90;;;;;;4958788;28;20461;-72
2021/11/07 20:10:48;;;;;;;5.40;4.80;;;7.80;99.90;;;;;;4958278;28;20273;-73
2021/11/07 20:13:13;;;;;;;6.93;4.57;;;7.80;99.90;;;;;;4958744;28;20953;-72
2021/11/07 20:15:40;;;;;;;6.13;4.60;;;7.80;99.90;;;;;;4958645;28;20224;-72
2021/11/07 20:18:07;;;;;;;4.33;3.93;;;7.70;99.90;;;;;;4958813;28;20279;-72
2021/11/07 20:20:34;;;;;;;6.70;4.63;;;7.70;99.90;;;;;;4958347;28;20451;-73
2021/11/07 20:23:00;;;;;;;4.23;3.83;;;7.70;99.90;;;;;;4958365;28;20493;-74
2021/11/07 20:25:27;;;;;;;4.30;3.90;;;7.60;99.90;;;;;;4958516;28;20476;-73
2021/11/07 20:27:55;;;;;;;6.60;4.97;;;7.60;99.90;;;;;;4958641;28;20465;-73
2021/11/07 20:30:24;;;;;;;6.97;4.40;;;7.60;99.90;;;;;;4958736;28;20601;-73
2021/11/07 20:32:54;;;;;;;4.43;4.10;;;7.60;99.90;;;;;;4957661;28;20976;-73
2021/11/07 20:35:26;;;;;;;4.23;3.83;;;7.50;99.90;;;;;;4958543;28;21133;-73
2021/11/07 20:37:58;;;;;;;4.10;3.43;;;7.50;99.90;;;;;;4956976;28;21113;-72
2021/11/07 20:40:25;;;;;;;5.07;4.20;;;7.50;99.90;;;;;;4955603;28;20563;-73
2021/11/07 20:42:56;;;;;;;5.27;4.00;;;7.50;99.90;;;;;;4954814;28;20477;-72
2021/11/07 20:45:39;;;;;;;6.13;3.90;;;7.50;99.90;;;;;;4955611;28;20511;-72
2021/11/07 20:48:15;;;;;;;7.00;4.00;;;7.40;99.90;;;;;;4955494;28;20965;-72
2021/11/07 20:50:51;;;;;;;4.50;4.10;;;7.50;99.90;;;;;;4955151;28;20474;-72